Bay Springs, Mississippi
Current Conditions -  °F | °C
As of 5:55 PM on Monday 22 Dec 2014 (Local Time) from KPIB Reporting Station
Overcast Overcast  
Wind Chill: 64°   Ceiling: 1000
Heat Index: 64°   Visibility: 5mi
Dew Point: 63°   Wind: 8mph
Humidity: 94%   Direction: 150°SSE
Pressure: 29.7"   Gusts: NA
Location:  31.98°N, 89.29°W
Report Text: KPIB 222355Z AUTO 15007KT 5SM OVC010 18/17 A2970 RMK AO1 10190 20160 401900110 57007
Loading
Personal Weather Stations






























Interactive Weather Map New forecast layout! Learn more

10-Day Weather Forecast

Advertisements
Track Severe Weather on mobile